sensor_id;sensor_type;location;lat;lon;timestamp;temperature;humidity
7814;DHT22;3952;48.364;16.022;2024-01-30T00:00:53;1.10;99.90
7814;DHT22;3952;48.364;16.022;2024-01-30T00:03:20;1.20;99.90
7814;DHT22;3952;48.364;16.022;2024-01-30T00:05:47;1.20;99.90
7814;DHT22;3952;48.364;16.022;2024-01-30T00:08:16;1.20;99.90
7814;DHT22;3952;48.364;16.022;2024-01-30T00:10:44;1.20;99.90
7814;DHT22;3952;48.364;16.022;2024-01-30T00:13:11;1.20;99.90
7814;DHT22;3952;48.364;16.022;2024-01-30T00:15:39;1.20;99.90
7814;DHT22;3952;48.364;16.022;2024-01-30T00:18:07;1.10;99.90
7814;DHT22;3952;48.364;16.022;2024-01-30T00:20:34;1.20;99.90
7814;DHT22;3952;48.364;16.022;2024-01-30T00:23:01;1.10;99.90
7814;DHT22;3952;48.364;16.022;2024-01-30T00:25:30;1.10;99.90
7814;DHT22;3952;48.364;16.022;2024-01-30T00:27:59;1.10;99.90
7814;DHT22;3952;48.364;16.022;2024-01-30T00:30:26;1.10;99.90
7814;DHT22;3952;48.364;16.022;2024-01-30T00:32:54;1.10;99.90
7814;DHT22;3952;48.364;16.022;2024-01-30T00:35:21;2.60;99.90
7814;DHT22;3952;48.364;16.022;2024-01-30T00:37:49;1.10;99.90
7814;DHT22;3952;48.364;16.022;2024-01-30T00:40:16;1.10;99.90
7814;DHT22;3952;48.364;16.022;2024-01-30T00:42:45;1.00;99.90
7814;DHT22;3952;48.364;16.022;2024-01-30T00:45:13;1.00;99.90
7814;DHT22;3952;48.364;16.022;2024-01-30T00:47:41;1.00;99.90
7814;DHT22;3952;48.364;16.022;2024-01-30T00:50:08;1.00;99.90
7814;DHT22;3952;48.364;16.022;2024-01-30T00:52:36;1.00;99.90
7814;DHT22;3952;48.364;16.022;2024-01-30T00:55:05;1.00;99.90
7814;DHT22;3952;48.364;16.022;2024-01-30T00:57:33;0.90;99.90
7814;DHT22;3952;48.364;16.022;2024-01-30T01:00:02;0.90;99.90
7814;DHT22;3952;48.364;16.022;2024-01-30T01:02:32;0.90;99.90
7814;DHT22;3952;48.364;16.022;2024-01-30T01:04:59;0.90;99.90
7814;DHT22;3952;48.364;16.022;2024-01-30T01:07:27;1.00;99.90
7814;DHT22;3952;48.364;16.022;2024-01-30T01:09:54;1.00;99.90
7814;DHT22;3952;48.364;16.022;2024-01-30T01:12:21;1.00;99.90
7814;DHT22;3952;48.364;16.022;2024-01-30T01:14:48;0.90;99.90
7814;DHT22;3952;48.364;16.022;2024-01-30T01:17:17;0.90;99.90
7814;DHT22;3952;48.364;16.022;2024-01-30T01:19:45;0.90;99.90
7814;DHT22;3952;48.364;16.022;2024-01-30T01:22:12;0.40;99.90
7814;DHT22;3952;48.364;16.022;2024-01-30T01:24:39;0.90;99.90
7814;DHT22;3952;48.364;16.022;2024-01-30T01:27:07;0.80;99.90
7814;DHT22;3952;48.364;16.022;2024-01-30T01:29:34;0.80;99.90
7814;DHT22;3952;48.364;16.022;2024-01-30T01:32:01;0.80;99.90
7814;DHT22;3952;48.364;16.022;2024-01-30T01:34:30;0.80;99.90
7814;DHT22;3952;48.364;16.022;2024-01-30T01:36:57;0.80;99.90
7814;DHT22;3952;48.364;16.022;2024-01-30T01:39:25;0.80;99.90
7814;DHT22;3952;48.364;16.022;2024-01-30T01:41:52;0.80;99.90
7814;DHT22;3952;48.364;16.022;2024-01-30T01:44:19;0.70;99.90
7814;DHT22;3952;48.364;16.022;2024-01-30T01:46:46;0.70;99.90
7814;DHT22;3952;48.364;16.022;2024-01-30T01:49:14;0.70;99.90
7814;DHT22;3952;48.364;16.022;2024-01-30T01:51:43;0.70;99.90
7814;DHT22;3952;48.364;16.022;2024-01-30T01:54:12;0.70;99.90
7814;DHT22;3952;48.364;16.022;2024-01-30T01:56:39;0.70;99.90
7814;DHT22;3952;48.364;16.022;2024-01-30T01:59:07;0.70;99.90
7814;DHT22;3952;48.364;16.022;2024-01-30T02:01:36;1.80;99.90
7814;DHT22;3952;48.364;16.022;2024-01-30T02:04:04;0.60;99.90
7814;DHT22;3952;48.364;16.022;2024-01-30T02:06:32;0.60;99.90
7814;DHT22;3952;48.364;16.022;2024-01-30T02:09:01;0.60;99.90
7814;DHT22;3952;48.364;16.022;2024-01-30T02:11:30;-0.20;99.90
7814;DHT22;3952;48.364;16.022;2024-01-30T02:14:02;0.60;99.90
7814;DHT22;3952;48.364;16.022;2024-01-30T02:16:30;0.60;99.90
7814;DHT22;3952;48.364;16.022;2024-01-30T02:18:57;0.60;99.90
7814;DHT22;3952;48.364;16.022;2024-01-30T02:21:26;0.60;99.90
7814;DHT22;3952;48.364;16.022;2024-01-30T02:23:54;0.60;99.90
7814;DHT22;3952;48.364;16.022;2024-01-30T02:26:22;0.60;99.90
7814;DHT22;3952;48.364;16.022;2024-01-30T02:28:49;0.60;99.90
7814;DHT22;3952;48.364;16.022;2024-01-30T02:31:16;0.60;99.90
7814;DHT22;3952;48.364;16.022;2024-01-30T02:33:44;0.60;99.90
7814;DHT22;3952;48.364;16.022;2024-01-30T02:36:11;0.60;99.90
7814;DHT22;3952;48.364;16.022;2024-01-30T02:38:40;0.60;99.90
7814;DHT22;3952;48.364;16.022;2024-01-30T02:41:07;0.60;99.90
7814;DHT22;3952;48.364;16.022;2024-01-30T02:43:34;0.60;99.90
7814;DHT22;3952;48.364;16.022;2024-01-30T02:46:01;0.60;99.90
7814;DHT22;3952;48.364;16.022;2024-01-30T02:48:29;0.60;99.90
7814;DHT22;3952;48.364;16.022;2024-01-30T02:50:56;0.50;99.90
7814;DHT22;3952;48.364;16.022;2024-01-30T02:53:23;0.50;99.90
7814;DHT22;3952;48.364;16.022;2024-01-30T02:55:52;0.50;99.90
7814;DHT22;3952;48.364;16.022;2024-01-30T02:58:19;0.50;99.90
7814;DHT22;3952;48.364;16.022;2024-01-30T03:00:47;0.50;99.90
7814;DHT22;3952;48.364;16.022;2024-01-30T03:03:14;0.40;99.90
7814;DHT22;3952;48.364;16.022;2024-01-30T03:05:40;0.40;99.90
7814;DHT22;3952;48.364;16.022;2024-01-30T03:08:08;0.50;99.90
7814;DHT22;3952;48.364;16.022;2024-01-30T03:10:35;0.40;99.90
7814;DHT22;3952;48.364;16.022;2024-01-30T03:13:04;0.40;99.90
7814;DHT22;3952;48.364;16.022;2024-01-30T03:15:31;0.30;99.90
7814;DHT22;3952;48.364;16.022;2024-01-30T03:17:58;0.30;99.90
7814;DHT22;3952;48.364;16.022;2024-01-30T03:20:26;0.40;99.90
7814;DHT22;3952;48.364;16.022;2024-01-30T03:22:54;0.40;99.90
7814;DHT22;3952;48.364;16.022;2024-01-30T03:25:22;0.40;99.90
7814;DHT22;3952;48.364;16.022;2024-01-30T03:27:49;0.40;99.90
7814;DHT22;3952;48.364;16.022;2024-01-30T03:30:18;0.30;99.90
7814;DHT22;3952;48.364;16.022;2024-01-30T03:32:45;0.30;99.90
7814;DHT22;3952;48.364;16.022;2024-01-30T03:35:13;0.30;99.90
7814;DHT22;3952;48.364;16.022;2024-01-30T03:37:40;0.30;99.90
7814;DHT22;3952;48.364;16.022;2024-01-30T03:40:08;0.30;99.90
7814;DHT22;3952;48.364;16.022;2024-01-30T03:42:36;0.30;99.90
7814;DHT22;3952;48.364;16.022;2024-01-30T03:45:04;0.20;99.90
7814;DHT22;3952;48.364;16.022;2024-01-30T03:47:33;1.00;99.90
7814;DHT22;3952;48.364;16.022;2024-01-30T03:50:00;0.20;99.90
7814;DHT22;3952;48.364;16.022;2024-01-30T03:52:27;0.20;99.90
7814;DHT22;3952;48.364;16.022;2024-01-30T03:54:55;0.10;99.90
7814;DHT22;3952;48.364;16.022;2024-01-30T03:57:22;0.10;99.90
7814;DHT22;3952;48.364;16.022;2024-01-30T03:59:49;0.10;99.90
7814;DHT22;3952;48.364;16.022;2024-01-30T04:02:16;0.10;99.90
7814;DHT22;3952;48.364;16.022;2024-01-30T04:04:46;0.10;99.90
7814;DHT22;3952;48.364;16.022;2024-01-30T04:07:13;0.10;99.90
7814;DHT22;3952;48.364;16.022;2024-01-30T04:09:40;0.10;99.90
7814;DHT22;3952;48.364;16.022;2024-01-30T04:12:08;0.10;99.90
7814;DHT22;3952;48.364;16.022;2024-01-30T04:14:35;0.10;99.90
7814;DHT22;3952;48.364;16.022;2024-01-30T04:17:02;0.10;99.90
7814;DHT22;3952;48.364;16.022;2024-01-30T04:19:30;0.10;99.90
7814;DHT22;3952;48.364;16.022;2024-01-30T04:21:58;0.20;99.90
7814;DHT22;3952;48.364;16.022;2024-01-30T04:24:26;0.20;99.90
7814;DHT22;3952;48.364;16.022;2024-01-30T04:26:53;0.10;99.90
7814;DHT22;3952;48.364;16.022;2024-01-30T04:29:20;0.10;99.90
7814;DHT22;3952;48.364;16.022;2024-01-30T04:31:48;0.10;99.90
7814;DHT22;3952;48.364;16.022;2024-01-30T04:34:15;0.00;99.90
7814;DHT22;3952;48.364;16.022;2024-01-30T04:36:44;0.10;99.90
7814;DHT22;3952;48.364;16.022;2024-01-30T04:39:13;0.00;99.90
7814;DHT22;3952;48.364;16.022;2024-01-30T04:41:40;-0.10;99.90
7814;DHT22;3952;48.364;16.022;2024-01-30T04:44:08;0.00;99.90
7814;DHT22;3952;48.364;16.022;2024-01-30T04:46:35;-0.10;99.90
7814;DHT22;3952;48.364;16.022;2024-01-30T04:49:02;-0.10;99.90
7814;DHT22;3952;48.364;16.022;2024-01-30T04:51:30;-0.10;99.90
7814;DHT22;3952;48.364;16.022;2024-01-30T04:53:57;1.40;99.90
7814;DHT22;3952;48.364;16.022;2024-01-30T04:56:26;-0.10;99.90
7814;DHT22;3952;48.364;16.022;2024-01-30T04:58:53;-0.10;99.90
7814;DHT22;3952;48.364;16.022;2024-01-30T05:01:20;-0.10;99.90
7814;DHT22;3952;48.364;16.022;2024-01-30T05:03:48;-0.10;99.90
7814;DHT22;3952;48.364;16.022;2024-01-30T05:06:24;0.50;99.90
7814;DHT22;3952;48.364;16.022;2024-01-30T05:08:51;-0.10;99.90
7814;DHT22;3952;48.364;16.022;2024-01-30T05:11:19;-0.20;99.90
7814;DHT22;3952;48.364;16.022;2024-01-30T05:13:47;-0.10;99.90
7814;DHT22;3952;48.364;16.022;2024-01-30T05:16:15;-0.10;99.90
7814;DHT22;3952;48.364;16.022;2024-01-30T05:18:42;-0.10;99.90
7814;DHT22;3952;48.364;16.022;2024-01-30T05:21:10;-0.20;99.90
7814;DHT22;3952;48.364;16.022;2024-01-30T05:23:37;-0.20;99.90
7814;DHT22;3952;48.364;16.022;2024-01-30T05:26:05;-0.20;99.90
7814;DHT22;3952;48.364;16.022;2024-01-30T05:28:33;-0.20;99.90
7814;DHT22;3952;48.364;16.022;2024-01-30T05:31:01;-0.20;99.90
7814;DHT22;3952;48.364;16.022;2024-01-30T05:33:29;-0.70;99.90
7814;DHT22;3952;48.364;16.022;2024-01-30T05:35:56;-0.50;99.90
7814;DHT22;3952;48.364;16.022;2024-01-30T05:38:23;-0.60;99.90
7814;DHT22;3952;48.364;16.022;2024-01-30T05:40:50;-0.70;99.90
7814;DHT22;3952;48.364;16.022;2024-01-30T05:43:18;-0.80;99.90
7814;DHT22;3952;48.364;16.022;2024-01-30T05:45:45;-0.90;99.90
7814;DHT22;3952;48.364;16.022;2024-01-30T05:48:14;-1.00;99.90
7814;DHT22;3952;48.364;16.022;2024-01-30T05:50:41;-1.00;99.90
7814;DHT22;3952;48.364;16.022;2024-01-30T05:53:08;-1.10;99.90
7814;DHT22;3952;48.364;16.022;2024-01-30T05:55:36;-1.10;99.90
7814;DHT22;3952;48.364;16.022;2024-01-30T05:58:03;-1.10;99.90
7814;DHT22;3952;48.364;16.022;2024-01-30T06:00:30;0.00;99.90
7814;DHT22;3952;48.364;16.022;2024-01-30T06:02:58;-1.20;99.90
7814;DHT22;3952;48.364;16.022;2024-01-30T06:05:26;-1.30;99.90
7814;DHT22;3952;48.364;16.022;2024-01-30T06:07:54;-1.30;99.90
7814;DHT22;3952;48.364;16.022;2024-01-30T06:10:21;-1.30;99.90
7814;DHT22;3952;48.364;16.022;2024-01-30T06:12:48;-1.40;99.90
7814;DHT22;3952;48.364;16.022;2024-01-30T06:15:16;-1.50;99.90
7814;DHT22;3952;48.364;16.022;2024-01-30T06:17:43;-1.50;99.90
7814;DHT22;3952;48.364;16.022;2024-01-30T06:20:10;-1.60;99.90
7814;DHT22;3952;48.364;16.022;2024-01-30T06:22:39;-1.70;99.90
7814;DHT22;3952;48.364;16.022;2024-01-30T06:25:07;-0.50;99.90
7814;DHT22;3952;48.364;16.022;2024-01-30T06:27:34;-1.70;99.90
7814;DHT22;3952;48.364;16.022;2024-01-30T06:30:02;-2.70;99.90
7814;DHT22;3952;48.364;16.022;2024-01-30T06:32:29;-1.70;99.90
7814;DHT22;3952;48.364;16.022;2024-01-30T06:35:00;-1.70;99.90
7814;DHT22;3952;48.364;16.022;2024-01-30T06:37:27;-1.70;99.90
7814;DHT22;3952;48.364;16.022;2024-01-30T06:39:56;-1.70;99.90
7814;DHT22;3952;48.364;16.022;2024-01-30T06:42:23;-1.70;99.90
7814;DHT22;3952;48.364;16.022;2024-01-30T06:44:51;-1.70;99.90
7814;DHT22;3952;48.364;16.022;2024-01-30T06:47:18;-1.70;99.90
7814;DHT22;3952;48.364;16.022;2024-01-30T06:49:45;-1.70;99.90
7814;DHT22;3952;48.364;16.022;2024-01-30T06:52:12;-1.70;99.90
7814;DHT22;3952;48.364;16.022;2024-01-30T06:54:40;-1.70;99.90
7814;DHT22;3952;48.364;16.022;2024-01-30T06:57:08;-1.70;99.90
7814;DHT22;3952;48.364;16.022;2024-01-30T06:59:37;-1.70;99.90
7814;DHT22;3952;48.364;16.022;2024-01-30T07:02:09;-1.70;99.90
7814;DHT22;3952;48.364;16.022;2024-01-30T07:04:36;-1.70;99.90
7814;DHT22;3952;48.364;16.022;2024-01-30T07:07:05;-1.60;99.90
7814;DHT22;3952;48.364;16.022;2024-01-30T07:09:37;-1.50;99.90
7814;DHT22;3952;48.364;16.022;2024-01-30T07:12:05;-1.50;99.90
7814;DHT22;3952;48.364;16.022;2024-01-30T07:14:35;-1.50;99.90
7814;DHT22;3952;48.364;16.022;2024-01-30T07:17:02;-1.40;99.90
7814;DHT22;3952;48.364;16.022;2024-01-30T07:19:30;-1.30;99.90
7814;DHT22;3952;48.364;16.022;2024-01-30T07:21:57;-1.20;99.90
7814;DHT22;3952;48.364;16.022;2024-01-30T07:24:24;-1.00;99.90
7814;DHT22;3952;48.364;16.022;2024-01-30T07:26:52;-0.80;99.90
7814;DHT22;3952;48.364;16.022;2024-01-30T07:29:19;-0.40;99.90
7814;DHT22;3952;48.364;16.022;2024-01-30T07:31:49;0.20;99.90
7814;DHT22;3952;48.364;16.022;2024-01-30T07:34:17;0.50;99.90
7814;DHT22;3952;48.364;16.022;2024-01-30T07:36:44;0.40;99.90
7814;DHT22;3952;48.364;16.022;2024-01-30T07:39:12;0.00;99.90
7814;DHT22;3952;48.364;16.022;2024-01-30T07:41:40;-0.20;99.90
7814;DHT22;3952;48.364;16.022;2024-01-30T07:44:07;-0.30;99.90
7814;DHT22;3952;48.364;16.022;2024-01-30T07:46:34;-0.30;99.90
7814;DHT22;3952;48.364;16.022;2024-01-30T07:49:03;-0.30;99.90
7814;DHT22;3952;48.364;16.022;2024-01-30T07:51:30;-0.30;99.90
7814;DHT22;3952;48.364;16.022;2024-01-30T07:53:58;-0.40;99.90
7814;DHT22;3952;48.364;16.022;2024-01-30T07:56:26;-0.40;99.90
7814;DHT22;3952;48.364;16.022;2024-01-30T07:58:53;-0.50;99.90
7814;DHT22;3952;48.364;16.022;2024-01-30T08:01:21;-0.50;99.90
7814;DHT22;3952;48.364;16.022;2024-01-30T08:03:48;-0.50;99.90
7814;DHT22;3952;48.364;16.022;2024-01-30T08:06:17;-0.50;99.90
7814;DHT22;3952;48.364;16.022;2024-01-30T08:08:45;-0.40;99.90
7814;DHT22;3952;48.364;16.022;2024-01-30T08:11:12;-0.40;99.90
7814;DHT22;3952;48.364;16.022;2024-01-30T08:13:40;-0.30;99.90
7814;DHT22;3952;48.364;16.022;2024-01-30T08:16:07;-0.30;99.90
7814;DHT22;3952;48.364;16.022;2024-01-30T08:18:34;-0.30;99.90
7814;DHT22;3952;48.364;16.022;2024-01-30T08:21:02;-0.30;99.90
7814;DHT22;3952;48.364;16.022;2024-01-30T08:23:31;-0.20;99.90
7814;DHT22;3952;48.364;16.022;2024-01-30T08:25:58;-0.20;99.90
7814;DHT22;3952;48.364;16.022;2024-01-30T08:28:26;-0.10;99.90
7814;DHT22;3952;48.364;16.022;2024-01-30T08:30:53;-0.10;99.90
7814;DHT22;3952;48.364;16.022;2024-01-30T08:33:20;0.00;99.90
7814;DHT22;3952;48.364;16.022;2024-01-30T08:35:48;0.10;99.90
7814;DHT22;3952;48.364;16.022;2024-01-30T08:38:15;0.10;99.90
7814;DHT22;3952;48.364;16.022;2024-01-30T08:40:44;0.10;99.90
7814;DHT22;3952;48.364;16.022;2024-01-30T08:43:11;0.20;99.90
7814;DHT22;3952;48.364;16.022;2024-01-30T08:45:38;0.20;99.90
7814;DHT22;3952;48.364;16.022;2024-01-30T08:48:06;0.20;99.90
7814;DHT22;3952;48.364;16.022;2024-01-30T08:50:34;0.30;99.90
7814;DHT22;3952;48.364;16.022;2024-01-30T08:53:01;0.30;99.90
7814;DHT22;3952;48.364;16.022;2024-01-30T08:55:29;0.40;99.90
7814;DHT22;3952;48.364;16.022;2024-01-30T08:57:57;0.40;99.90
7814;DHT22;3952;48.364;16.022;2024-01-30T09:00:25;0.40;99.90
7814;DHT22;3952;48.364;16.022;2024-01-30T09:02:52;0.40;99.90
7814;DHT22;3952;48.364;16.022;2024-01-30T09:05:20;0.50;99.90
7814;DHT22;3952;48.364;16.022;2024-01-30T09:07:47;0.50;99.90
7814;DHT22;3952;48.364;16.022;2024-01-30T09:10:14;0.60;99.90
7814;DHT22;3952;48.364;16.022;2024-01-30T09:12:42;0.70;99.90
7814;DHT22;3952;48.364;16.022;2024-01-30T09:15:11;0.70;99.90
7814;DHT22;3952;48.364;16.022;2024-01-30T09:17:38;0.70;99.90
7814;DHT22;3952;48.364;16.022;2024-01-30T09:20:07;0.70;99.90
7814;DHT22;3952;48.364;16.022;2024-01-30T09:22:35;0.80;99.90
7814;DHT22;3952;48.364;16.022;2024-01-30T09:25:02;0.80;99.90
7814;DHT22;3952;48.364;16.022;2024-01-30T09:27:30;0.80;99.90
7814;DHT22;3952;48.364;16.022;2024-01-30T09:29:57;0.90;99.90
7814;DHT22;3952;48.364;16.022;2024-01-30T09:32:26;0.90;99.90
7814;DHT22;3952;48.364;16.022;2024-01-30T09:34:53;0.90;99.90
7814;DHT22;3952;48.364;16.022;2024-01-30T09:37:21;1.00;99.90
7814;DHT22;3952;48.364;16.022;2024-01-30T09:39:48;1.00;99.90
7814;DHT22;3952;48.364;16.022;2024-01-30T09:42:24;1.10;99.90
7814;DHT22;3952;48.364;16.022;2024-01-30T09:44:53;1.10;99.90
7814;DHT22;3952;48.364;16.022;2024-01-30T09:47:21;1.10;99.90
7814;DHT22;3952;48.364;16.022;2024-01-30T09:49:51;1.20;99.90
7814;DHT22;3952;48.364;16.022;2024-01-30T09:52:18;1.20;99.90
7814;DHT22;3952;48.364;16.022;2024-01-30T09:54:45;1.20;99.90
7814;DHT22;3952;48.364;16.022;2024-01-30T09:57:14;1.30;99.90
7814;DHT22;3952;48.364;16.022;2024-01-30T09:59:42;1.50;99.90
7814;DHT22;3952;48.364;16.022;2024-01-30T10:02:10;1.60;99.90
7814;DHT22;3952;48.364;16.022;2024-01-30T10:04:37;1.70;99.90
7814;DHT22;3952;48.364;16.022;2024-01-30T10:07:09;1.70;99.90
7814;DHT22;3952;48.364;16.022;2024-01-30T10:09:38;1.80;99.90
7814;DHT22;3952;48.364;16.022;2024-01-30T10:12:06;1.90;99.90
7814;DHT22;3952;48.364;16.022;2024-01-30T10:14:37;2.10;99.90
7814;DHT22;3952;48.364;16.022;2024-01-30T10:17:05;2.20;99.90
7814;DHT22;3952;48.364;16.022;2024-01-30T10:19:32;2.20;99.90
7814;DHT22;3952;48.364;16.022;2024-01-30T10:22:00;2.50;99.90
7814;DHT22;3952;48.364;16.022;2024-01-30T10:24:29;2.80;99.90
7814;DHT22;3952;48.364;16.022;2024-01-30T10:26:56;3.10;99.90
7814;DHT22;3952;48.364;16.022;2024-01-30T10:29:25;3.30;99.90
7814;DHT22;3952;48.364;16.022;2024-01-30T10:31:59;3.40;99.90
7814;DHT22;3952;48.364;16.022;2024-01-30T10:34:27;3.50;99.90
7814;DHT22;3952;48.364;16.022;2024-01-30T10:37:00;3.50;99.90
7814;DHT22;3952;48.364;16.022;2024-01-30T10:39:37;3.60;99.90
7814;DHT22;3952;48.364;16.022;2024-01-30T10:42:06;3.60;99.90
7814;DHT22;3952;48.364;16.022;2024-01-30T10:44:43;3.80;99.90
7814;DHT22;3952;48.364;16.022;2024-01-30T10:47:12;4.10;99.90
7814;DHT22;3952;48.364;16.022;2024-01-30T10:49:41;4.30;99.90
7814;DHT22;3952;48.364;16.022;2024-01-30T10:52:09;4.50;99.90
7814;DHT22;3952;48.364;16.022;2024-01-30T10:54:40;4.80;99.90
7814;DHT22;3952;48.364;16.022;2024-01-30T10:57:11;5.00;99.90
7814;DHT22;3952;48.364;16.022;2024-01-30T10:59:39;5.10;99.90
7814;DHT22;3952;48.364;16.022;2024-01-30T11:02:08;5.00;99.90
7814;DHT22;3952;48.364;16.022;2024-01-30T11:04:36;4.90;99.90
7814;DHT22;3952;48.364;16.022;2024-01-30T11:07:14;4.80;99.90
7814;DHT22;3952;48.364;16.022;2024-01-30T11:09:50;4.70;99.90
7814;DHT22;3952;48.364;16.022;2024-01-30T11:12:21;4.50;99.90
7814;DHT22;3952;48.364;16.022;2024-01-30T11:14:50;4.20;99.90
7814;DHT22;3952;48.364;16.022;2024-01-30T11:17:30;4.10;99.90
7814;DHT22;3952;48.364;16.022;2024-01-30T11:20:10;3.90;99.90
7814;DHT22;3952;48.364;16.022;2024-01-30T11:22:42;4.30;99.90
7814;DHT22;3952;48.364;16.022;2024-01-30T11:25:16;3.80;99.90
7814;DHT22;3952;48.364;16.022;2024-01-30T11:27:44;3.80;99.90
7814;DHT22;3952;48.364;16.022;2024-01-30T11:30:21;3.70;99.90
7814;DHT22;3952;48.364;16.022;2024-01-30T11:32:59;3.70;99.90
7814;DHT22;3952;48.364;16.022;2024-01-30T11:35:27;3.60;99.90
7814;DHT22;3952;48.364;16.022;2024-01-30T11:37:54;3.70;99.90
7814;DHT22;3952;48.364;16.022;2024-01-30T11:40:27;3.70;99.90
7814;DHT22;3952;48.364;16.022;2024-01-30T11:42:55;3.80;99.90
7814;DHT22;3952;48.364;16.022;2024-01-30T11:45:22;3.70;99.90
7814;DHT22;3952;48.364;16.022;2024-01-30T11:47:50;3.80;99.90
7814;DHT22;3952;48.364;16.022;2024-01-30T11:50:18;3.80;99.90
7814;DHT22;3952;48.364;16.022;2024-01-30T11:52:45;3.80;99.90
7814;DHT22;3952;48.364;16.022;2024-01-30T11:55:13;3.90;99.90
7814;DHT22;3952;48.364;16.022;2024-01-30T11:57:42;3.90;99.90
7814;DHT22;3952;48.364;16.022;2024-01-30T12:00:15;4.00;99.90
7814;DHT22;3952;48.364;16.022;2024-01-30T12:02:43;4.20;99.90
7814;DHT22;3952;48.364;16.022;2024-01-30T12:05:10;4.20;99.90
7814;DHT22;3952;48.364;16.022;2024-01-30T12:07:38;4.30;99.90
7814;DHT22;3952;48.364;16.022;2024-01-30T12:10:05;4.20;99.90
7814;DHT22;3952;48.364;16.022;2024-01-30T12:12:34;4.20;99.90
7814;DHT22;3952;48.364;16.022;2024-01-30T12:15:04;4.20;99.90
7814;DHT22;3952;48.364;16.022;2024-01-30T12:17:33;4.30;99.90
7814;DHT22;3952;48.364;16.022;2024-01-30T12:20:05;4.30;99.90
7814;DHT22;3952;48.364;16.022;2024-01-30T12:22:36;4.40;99.90
7814;DHT22;3952;48.364;16.022;2024-01-30T12:25:05;4.40;99.90
7814;DHT22;3952;48.364;16.022;2024-01-30T12:27:32;4.40;99.90
7814;DHT22;3952;48.364;16.022;2024-01-30T12:30:00;4.40;99.90
7814;DHT22;3952;48.364;16.022;2024-01-30T12:32:29;4.30;99.90
7814;DHT22;3952;48.364;16.022;2024-01-30T12:34:57;4.30;99.90
7814;DHT22;3952;48.364;16.022;2024-01-30T12:37:24;4.10;99.90
7814;DHT22;3952;48.364;16.022;2024-01-30T12:39:52;4.10;99.90
7814;DHT22;3952;48.364;16.022;2024-01-30T12:42:21;4.10;99.90
7814;DHT22;3952;48.364;16.022;2024-01-30T12:44:48;4.10;99.90
7814;DHT22;3952;48.364;16.022;2024-01-30T12:47:16;4.10;99.90
7814;DHT22;3952;48.364;16.022;2024-01-30T12:49:45;4.20;99.90
7814;DHT22;3952;48.364;16.022;2024-01-30T12:52:14;4.20;99.90
7814;DHT22;3952;48.364;16.022;2024-01-30T12:54:41;4.30;99.90
7814;DHT22;3952;48.364;16.022;2024-01-30T12:57:08;4.40;99.90
7814;DHT22;3952;48.364;16.022;2024-01-30T12:59:36;4.40;99.90
7814;DHT22;3952;48.364;16.022;2024-01-30T13:02:03;4.30;99.90
7814;DHT22;3952;48.364;16.022;2024-01-30T13:04:31;4.30;99.90
7814;DHT22;3952;48.364;16.022;2024-01-30T13:07:00;4.30;99.90
7814;DHT22;3952;48.364;16.022;2024-01-30T13:09:29;4.40;99.90
7814;DHT22;3952;48.364;16.022;2024-01-30T13:11:56;4.30;99.90
7814;DHT22;3952;48.364;16.022;2024-01-30T13:14:24;4.30;99.90
7814;DHT22;3952;48.364;16.022;2024-01-30T13:16:51;4.20;99.90
7814;DHT22;3952;48.364;16.022;2024-01-30T13:19:19;4.10;99.90
7814;DHT22;3952;48.364;16.022;2024-01-30T13:21:46;4.10;99.90
7814;DHT22;3952;48.364;16.022;2024-01-30T13:24:16;4.10;99.90
7814;DHT22;3952;48.364;16.022;2024-01-30T13:26:47;4.10;99.90
7814;DHT22;3952;48.364;16.022;2024-01-30T13:29:14;4.10;99.90
7814;DHT22;3952;48.364;16.022;2024-01-30T13:31:42;4.00;99.90
7814;DHT22;3952;48.364;16.022;2024-01-30T13:34:10;2.70;99.90
7814;DHT22;3952;48.364;16.022;2024-01-30T13:36:37;4.00;99.90
7814;DHT22;3952;48.364;16.022;2024-01-30T13:39:05;4.00;99.90
7814;DHT22;3952;48.364;16.022;2024-01-30T13:41:37;3.90;99.90
7814;DHT22;3952;48.364;16.022;2024-01-30T13:44:04;2.40;99.90
7814;DHT22;3952;48.364;16.022;2024-01-30T13:46:32;3.90;99.90
7814;DHT22;3952;48.364;16.022;2024-01-30T13:48:59;3.90;99.90
7814;DHT22;3952;48.364;16.022;2024-01-30T13:51:27;3.80;99.90
7814;DHT22;3952;48.364;16.022;2024-01-30T13:53:55;3.80;99.90
7814;DHT22;3952;48.364;16.022;2024-01-30T13:56:22;3.70;99.90
7814;DHT22;3952;48.364;16.022;2024-01-30T13:58:52;3.70;99.90
7814;DHT22;3952;48.364;16.022;2024-01-30T14:01:21;3.70;99.90
7814;DHT22;3952;48.364;16.022;2024-01-30T14:03:48;3.60;99.90
7814;DHT22;3952;48.364;16.022;2024-01-30T14:06:16;3.50;99.90
7814;DHT22;3952;48.364;16.022;2024-01-30T14:08:43;3.50;99.90
7814;DHT22;3952;48.364;16.022;2024-01-30T14:11:10;3.50;99.90
7814;DHT22;3952;48.364;16.022;2024-01-30T14:13:38;3.50;99.90
7814;DHT22;3952;48.364;16.022;2024-01-30T14:16:07;3.50;99.90
7814;DHT22;3952;48.364;16.022;2024-01-30T14:18:34;3.50;99.90
7814;DHT22;3952;48.364;16.022;2024-01-30T14:21:02;3.40;99.90
7814;DHT22;3952;48.364;16.022;2024-01-30T14:23:29;3.40;99.90
7814;DHT22;3952;48.364;16.022;2024-01-30T14:25:56;3.30;99.90
7814;DHT22;3952;48.364;16.022;2024-01-30T14:28:24;3.30;99.90
7814;DHT22;3952;48.364;16.022;2024-01-30T14:30:51;3.20;99.90
7814;DHT22;3952;48.364;16.022;2024-01-30T14:33:20;3.10;99.90
7814;DHT22;3952;48.364;16.022;2024-01-30T14:35:47;3.10;99.90
7814;DHT22;3952;48.364;16.022;2024-01-30T14:38:14;3.00;99.90
7814;DHT22;3952;48.364;16.022;2024-01-30T14:40:42;3.00;99.90
7814;DHT22;3952;48.364;16.022;2024-01-30T14:43:09;2.90;99.90
7814;DHT22;3952;48.364;16.022;2024-01-30T14:45:36;2.90;99.90
7814;DHT22;3952;48.364;16.022;2024-01-30T14:48:04;2.90;99.90
7814;DHT22;3952;48.364;16.022;2024-01-30T14:50:33;2.90;99.90
7814;DHT22;3952;48.364;16.022;2024-01-30T14:53:01;2.90;99.90
7814;DHT22;3952;48.364;16.022;2024-01-30T14:55:28;2.90;99.90
7814;DHT22;3952;48.364;16.022;2024-01-30T14:57:55;2.80;99.90
7814;DHT22;3952;48.364;16.022;2024-01-30T15:00:25;2.70;99.90
7814;DHT22;3952;48.364;16.022;2024-01-30T15:02:52;2.70;99.90
7814;DHT22;3952;48.364;16.022;2024-01-30T15:05:19;2.60;99.90
7814;DHT22;3952;48.364;16.022;2024-01-30T15:07:48;2.60;99.90
7814;DHT22;3952;48.364;16.022;2024-01-30T15:10:15;2.60;99.90
7814;DHT22;3952;48.364;16.022;2024-01-30T15:12:43;2.50;99.90
7814;DHT22;3952;48.364;16.022;2024-01-30T15:15:11;2.50;99.90
7814;DHT22;3952;48.364;16.022;2024-01-30T15:17:39;2.40;99.90
7814;DHT22;3952;48.364;16.022;2024-01-30T15:20:07;2.40;99.90
7814;DHT22;3952;48.364;16.022;2024-01-30T15:22:34;2.30;99.90
7814;DHT22;3952;48.364;16.022;2024-01-30T15:25:04;2.30;99.90
7814;DHT22;3952;48.364;16.022;2024-01-30T15:27:32;2.20;99.90
7814;DHT22;3952;48.364;16.022;2024-01-30T15:29:59;2.20;99.90
7814;DHT22;3952;48.364;16.022;2024-01-30T15:32:26;2.10;99.90
7814;DHT22;3952;48.364;16.022;2024-01-30T15:34:54;2.10;99.90
7814;DHT22;3952;48.364;16.022;2024-01-30T15:37:22;2.00;99.90
7814;DHT22;3952;48.364;16.022;2024-01-30T15:39:50;1.90;99.90
7814;DHT22;3952;48.364;16.022;2024-01-30T15:42:18;1.80;99.90
7814;DHT22;3952;48.364;16.022;2024-01-30T15:44:46;1.70;99.90
7814;DHT22;3952;48.364;16.022;2024-01-30T15:47:14;1.70;99.90
7814;DHT22;3952;48.364;16.022;2024-01-30T15:49:41;1.70;99.90
7814;DHT22;3952;48.364;16.022;2024-01-30T15:52:08;1.60;99.90
7814;DHT22;3952;48.364;16.022;2024-01-30T15:54:40;1.50;99.90
7814;DHT22;3952;48.364;16.022;2024-01-30T15:57:07;1.40;99.90
7814;DHT22;3952;48.364;16.022;2024-01-30T15:59:36;1.40;99.90
7814;DHT22;3952;48.364;16.022;2024-01-30T16:02:04;1.30;99.90